Time;durP1;ratioP1;P1;durP2;ratioP2;P2;SDS_P1;SDS_P2;PMS_P1;PMS_P2;Temp;Humidity;BMP_temperature;BMP_pressure;BME280_temperature;BME280_humidity;BME280_pressure;Samples;Min_cycle;Max_cycle;Signal;HPM_P1;HPM_P2
2023/07/24 00:02:04;;;;;;;15.10;7.22;;;;;;;;;;6275726;22;20405;-65
2023/07/24 00:04:35;;;;;;;15.50;6.22;;;;;;;;;;6248136;22;20451;-65
2023/07/24 00:07:02;;;;;;;11.13;6.10;;;;;;;;;;6274592;22;20491;-65
2023/07/24 00:09:28;;;;;;;12.55;6.22;;;;;;;;;;6275926;22;20055;-65
2023/07/24 00:11:54;;;;;;;11.40;6.57;;;;;;;;;;6248743;22;20444;-65
2023/07/24 00:14:20;;;;;;;14.73;7.65;;;;;;;;;;6275838;22;20390;-65
2023/07/24 00:16:46;;;;;;;11.35;6.32;;;;;;;;;;6275334;22;20428;-65
2023/07/24 00:19:12;;;;;;;13.77;6.57;;;;;;;;;;6248807;22;20019;-65
2023/07/24 00:21:38;;;;;;;10.65;6.53;;;;;;;;;;6274316;22;20356;-65
2023/07/24 00:24:04;;;;;;;10.57;6.28;;;;;;;;;;6274345;22;20019;-66
2023/07/24 00:26:30;;;;;;;14.98;7.22;;;;;;;;;;6223437;22;20137;-65
2023/07/24 00:28:56;;;;;;;14.88;8.20;;;;;;;;;;6223283;22;20024;-65
2023/07/24 00:31:22;;;;;;;11.88;7.60;;;;;;;;;;6222972;22;20443;-65
2023/07/24 00:33:48;;;;;;;13.32;7.82;;;;;;;;;;6275512;22;20451;-65
2023/07/24 00:36:14;;;;;;;13.57;8.02;;;;;;;;;;6274912;22;20015;-65
2023/07/24 00:38:40;;;;;;;13.98;8.45;;;;;;;;;;6275177;22;20016;-65
2023/07/24 00:41:06;;;;;;;13.75;9.93;;;;;;;;;;6274553;22;20089;-66
2023/07/24 00:43:32;;;;;;;15.45;9.70;;;;;;;;;;6275762;22;20090;-65
2023/07/24 00:45:58;;;;;;;12.80;9.50;;;;;;;;;;6275415;22;20016;-67
2023/07/24 00:48:24;;;;;;;14.65;10.18;;;;;;;;;;6275681;22;20056;-66
2023/07/24 00:50:51;;;;;;;14.90;10.80;;;;;;;;;;6221765;22;20336;-65
2023/07/24 00:53:17;;;;;;;13.40;9.90;;;;;;;;;;6222764;22;20016;-65
2023/07/24 00:55:44;;;;;;;15.05;10.73;;;;;;;;;;6223233;22;20020;-65
2023/07/24 00:58:15;;;;;;;14.73;10.93;;;;;;;;;;6220609;22;20023;-65
2023/07/24 01:00:41;;;;;;;15.65;11.20;;;;;;;;;;6221255;22;20019;-65
2023/07/24 01:03:07;;;;;;;16.27;10.98;;;;;;;;;;6222870;22;20023;-65
2023/07/24 01:05:33;;;;;;;17.33;11.07;;;;;;;;;;6275238;22;20145;-65
2023/07/24 01:07:59;;;;;;;13.85;11.30;;;;;;;;;;6274406;22;20374;-65
2023/07/24 01:10:25;;;;;;;14.57;10.68;;;;;;;;;;6275740;22;20543;-65
2023/07/24 01:12:54;;;;;;;14.15;10.40;;;;;;;;;;6274427;22;20466;-65
2023/07/24 01:15:25;;;;;;;15.82;11.27;;;;;;;;;;6246784;22;20055;-66
2023/07/24 01:17:57;;;;;;;13.07;9.15;;;;;;;;;;6223275;22;20074;-65
2023/07/24 01:20:25;;;;;;;14.48;9.88;;;;;;;;;;6275003;22;20019;-65
2023/07/24 01:23:01;;;;;;;14.27;9.55;;;;;;;;;;6223105;22;20016;-66
2023/07/24 01:25:35;;;;;;;12.65;9.50;;;;;;;;;;6248068;22;20337;-65
2023/07/24 01:28:01;;;;;;;12.63;9.65;;;;;;;;;;6246976;22;20020;-66
2023/07/24 01:30:27;;;;;;;13.60;9.23;;;;;;;;;;6274845;22;20020;-66
2023/07/24 01:32:53;;;;;;;14.13;10.35;;;;;;;;;;6247224;22;20027;-65
2023/07/24 01:35:19;;;;;;;14.20;9.65;;;;;;;;;;6274657;22;20455;-65
2023/07/24 01:37:47;;;;;;;14.18;9.50;;;;;;;;;;6248316;22;20515;-65
2023/07/24 01:40:13;;;;;;;12.68;9.68;;;;;;;;;;6222431;22;20392;-66
2023/07/24 01:42:39;;;;;;;16.17;9.50;;;;;;;;;;6221838;22;20488;-65
2023/07/24 01:45:06;;;;;;;13.65;8.82;;;;;;;;;;6221569;22;20023;-65
2023/07/24 01:47:32;;;;;;;16.73;9.63;;;;;;;;;;6247157;22;20016;-65
2023/07/24 01:49:58;;;;;;;15.20;9.30;;;;;;;;;;6247572;22;20042;-67
2023/07/24 01:52:24;;;;;;;12.98;8.30;;;;;;;;;;6274967;22;20069;-66
2023/07/24 01:54:50;;;;;;;12.52;8.45;;;;;;;;;;6273790;22;20016;-66
2023/07/24 01:57:16;;;;;;;13.27;8.15;;;;;;;;;;6274334;22;20026;-65
2023/07/24 01:59:44;;;;;;;10.68;7.43;;;;;;;;;;6274699;22;20022;-66
2023/07/24 02:02:10;;;;;;;11.90;8.18;;;;;;;;;;6221671;22;20022;-66
2023/07/24 02:04:36;;;;;;;14.07;8.40;;;;;;;;;;6274718;22;20012;-66
2023/07/24 02:07:02;;;;;;;12.00;8.00;;;;;;;;;;6247725;22;20348;-66
2023/07/24 02:09:29;;;;;;;11.85;7.13;;;;;;;;;;6221884;22;20012;-66
2023/07/24 02:11:55;;;;;;;12.93;9.45;;;;;;;;;;6275275;22;20051;-66
2023/07/24 02:14:21;;;;;;;13.10;8.00;;;;;;;;;;6222487;22;20062;-66
2023/07/24 02:16:47;;;;;;;15.05;7.28;;;;;;;;;;6222297;22;20447;-66
2023/07/24 02:19:13;;;;;;;8.98;6.95;;;;;;;;;;6274361;22;20073;-66
2023/07/24 02:21:40;;;;;;;14.52;7.22;;;;;;;;;;6275073;22;20094;-66
2023/07/24 02:24:06;;;;;;;11.75;7.72;;;;;;;;;;6221063;22;20015;-65
2023/07/24 02:26:32;;;;;;;12.23;7.10;;;;;;;;;;6274260;22;20026;-65
2023/07/24 02:28:58;;;;;;;12.48;8.32;;;;;;;;;;6274253;22;20020;-67
2023/07/24 02:31:24;;;;;;;11.60;7.70;;;;;;;;;;6274445;22;20022;-65
2023/07/24 02:33:50;;;;;;;13.25;8.18;;;;;;;;;;6274487;22;20466;-65
2023/07/24 02:36:16;;;;;;;9.90;7.30;;;;;;;;;;6274058;22;20015;-66
2023/07/24 02:38:42;;;;;;;11.50;7.53;;;;;;;;;;6273685;22;20425;-66
2023/07/24 02:41:08;;;;;;;10.48;7.68;;;;;;;;;;6247114;22;20486;-66
2023/07/24 02:43:34;;;;;;;12.38;7.55;;;;;;;;;;6273623;22;20019;-66
2023/07/24 02:46:01;;;;;;;12.23;7.35;;;;;;;;;;6274586;22;20095;-66
2023/07/24 02:48:28;;;;;;;9.70;7.53;;;;;;;;;;6224265;22;20026;-66
2023/07/24 02:50:54;;;;;;;12.60;8.55;;;;;;;;;;6224171;22;20027;-65
2023/07/24 02:53:20;;;;;;;13.43;8.18;;;;;;;;;;6248575;22;20030;-66
2023/07/24 02:55:46;;;;;;;10.73;7.22;;;;;;;;;;6249532;22;20102;-66
2023/07/24 02:58:13;;;;;;;11.15;7.85;;;;;;;;;;6247943;22;20030;-66
2023/07/24 03:00:39;;;;;;;13.60;7.22;;;;;;;;;;6222883;22;20050;-66
2023/07/24 03:03:05;;;;;;;12.98;8.13;;;;;;;;;;6246182;22;20027;-66
2023/07/24 03:05:31;;;;;;;14.70;8.05;;;;;;;;;;6248376;22;20026;-66
2023/07/24 03:07:58;;;;;;;14.32;8.40;;;;;;;;;;6276841;22;20135;-66
2023/07/24 03:10:24;;;;;;;11.52;8.25;;;;;;;;;;6249236;22;20023;-66
2023/07/24 03:12:50;;;;;;;14.25;8.85;;;;;;;;;;6275945;22;20405;-65
2023/07/24 03:15:16;;;;;;;10.70;8.07;;;;;;;;;;6275731;22;20364;-66
2023/07/24 03:17:42;;;;;;;13.98;8.85;;;;;;;;;;6249568;22;20146;-66
2023/07/24 03:20:09;;;;;;;13.60;8.90;;;;;;;;;;6275462;22;20345;-66
2023/07/24 03:22:35;;;;;;;14.65;8.93;;;;;;;;;;6224305;22;20030;-66
2023/07/24 03:25:01;;;;;;;15.10;9.85;;;;;;;;;;6222783;22;20046;-66
2023/07/24 03:27:27;;;;;;;12.95;9.30;;;;;;;;;;6276101;22;20403;-66
2023/07/24 03:29:54;;;;;;;14.63;9.43;;;;;;;;;;6275197;22;20039;-66
2023/07/24 03:32:20;;;;;;;11.10;8.60;;;;;;;;;;6275420;22;20047;-66
2023/07/24 03:34:46;;;;;;;15.40;9.75;;;;;;;;;;6224137;22;20041;-65
2023/07/24 03:37:12;;;;;;;15.20;9.32;;;;;;;;;;6276123;22;20097;-66
2023/07/24 03:39:38;;;;;;;14.68;9.15;;;;;;;;;;6249240;22;20031;-66
2023/07/24 03:42:04;;;;;;;13.45;8.82;;;;;;;;;;6274496;22;20023;-66
2023/07/24 03:44:30;;;;;;;14.57;10.18;;;;;;;;;;6248798;22;20043;-66
2023/07/24 03:46:56;;;;;;;13.55;9.40;;;;;;;;;;6276357;22;20077;-65
2023/07/24 03:49:22;;;;;;;13.93;8.82;;;;;;;;;;6248539;22;20019;-65
2023/07/24 03:51:49;;;;;;;13.70;9.27;;;;;;;;;;6223890;22;20015;-65
2023/07/24 03:54:15;;;;;;;12.57;9.50;;;;;;;;;;6248768;22;20510;-66
2023/07/24 03:56:41;;;;;;;11.23;8.30;;;;;;;;;;6275575;22;20024;-66
2023/07/24 03:59:07;;;;;;;12.02;9.13;;;;;;;;;;6274689;22;20015;-66
2023/07/24 04:01:33;;;;;;;13.90;8.93;;;;;;;;;;6276026;22;20031;-66
2023/07/24 04:03:59;;;;;;;13.68;8.70;;;;;;;;;;6247877;22;20020;-66
2023/07/24 04:06:25;;;;;;;15.07;8.70;;;;;;;;;;6248640;22;20511;-66
2023/07/24 04:08:51;;;;;;;14.70;9.30;;;;;;;;;;6275317;22;20016;-66
2023/07/24 04:11:17;;;;;;;14.27;9.55;;;;;;;;;;6275849;22;20034;-66
2023/07/24 04:13:43;;;;;;;11.80;8.07;;;;;;;;;;6248580;22;20016;-66
2023/07/24 04:16:09;;;;;;;11.52;8.13;;;;;;;;;;6275438;22;20026;-66
2023/07/24 04:18:35;;;;;;;13.63;10.10;;;;;;;;;;6275684;22;20016;-66
2023/07/24 04:21:02;;;;;;;11.73;8.63;;;;;;;;;;6275131;22;20065;-66
2023/07/24 04:23:28;;;;;;;13.43;8.57;;;;;;;;;;6248182;22;20020;-66
2023/07/24 04:25:54;;;;;;;14.38;9.32;;;;;;;;;;6248472;22;20020;-65
2023/07/24 04:28:20;;;;;;;11.80;8.73;;;;;;;;;;6247803;22;20011;-66
2023/07/24 04:30:46;;;;;;;14.50;9.27;;;;;;;;;;6247314;22;20344;-66
2023/07/24 04:33:12;;;;;;;11.55;8.30;;;;;;;;;;6274833;22;20466;-66
2023/07/24 04:35:38;;;;;;;12.90;7.95;;;;;;;;;;6245668;22;20345;-65
2023/07/24 04:38:04;;;;;;;12.40;8.02;;;;;;;;;;6274661;22;20437;-65
2023/07/24 04:40:30;;;;;;;11.48;8.75;;;;;;;;;;6275932;22;20079;-65
2023/07/24 04:42:56;;;;;;;13.18;8.68;;;;;;;;;;6221101;22;20020;-65
2023/07/24 04:45:22;;;;;;;12.60;9.32;;;;;;;;;;6247711;22;20519;-65
2023/07/24 04:47:48;;;;;;;13.15;8.52;;;;;;;;;;6272905;22;20059;-67
2023/07/24 04:50:14;;;;;;;13.02;9.15;;;;;;;;;;6246727;22;20027;-66
2023/07/24 04:52:40;;;;;;;12.15;8.60;;;;;;;;;;6274127;22;20023;-66
2023/07/24 04:55:07;;;;;;;12.15;8.73;;;;;;;;;;6275326;22;20054;-66
2023/07/24 04:57:33;;;;;;;13.15;7.95;;;;;;;;;;6274993;22;20098;-66
2023/07/24 04:59:59;;;;;;;11.45;8.55;;;;;;;;;;6222354;22;20085;-66
2023/07/24 05:02:25;;;;;;;13.98;9.13;;;;;;;;;;6247331;22;20102;-65
2023/07/24 05:04:51;;;;;;;13.93;8.88;;;;;;;;;;6244586;22;20011;-66
2023/07/24 05:07:17;;;;;;;14.02;8.95;;;;;;;;;;6222653;22;20024;-65
2023/07/24 05:09:43;;;;;;;11.88;8.20;;;;;;;;;;6275352;22;20042;-66
2023/07/24 05:12:09;;;;;;;13.20;9.07;;;;;;;;;;6247336;22;20023;-65
2023/07/24 05:14:35;;;;;;;13.65;8.43;;;;;;;;;;6274158;22;20012;-66
2023/07/24 05:17:01;;;;;;;15.27;9.10;;;;;;;;;;6247921;22;20011;-66
2023/07/24 05:19:27;;;;;;;13.27;9.32;;;;;;;;;;6275188;22;20020;-66
2023/07/24 05:21:53;;;;;;;15.40;9.70;;;;;;;;;;6274731;22;20028;-66
2023/07/24 05:24:19;;;;;;;16.15;9.48;;;;;;;;;;6274664;22;20065;-66
2023/07/24 05:26:45;;;;;;;12.27;8.32;;;;;;;;;;6247293;22;20028;-65
2023/07/24 05:29:11;;;;;;;15.25;9.10;;;;;;;;;;6222249;22;20011;-65
2023/07/24 05:31:37;;;;;;;14.65;8.93;;;;;;;;;;6274936;22;20162;-66
2023/07/24 05:34:03;;;;;;;13.18;8.75;;;;;;;;;;6274557;22;20456;-66
2023/07/24 05:36:29;;;;;;;16.25;9.00;;;;;;;;;;6274828;22;20063;-65
2023/07/24 05:38:56;;;;;;;13.27;9.02;;;;;;;;;;6247417;22;20019;-66
2023/07/24 05:41:22;;;;;;;15.32;9.52;;;;;;;;;;6222254;22;20062;-65
2023/07/24 05:43:48;;;;;;;13.73;9.20;;;;;;;;;;6274184;22;20016;-65
2023/07/24 05:46:14;;;;;;;16.88;9.18;;;;;;;;;;6274218;22;20023;-65
2023/07/24 05:48:40;;;;;;;15.52;9.07;;;;;;;;;;6247733;22;20145;-66
2023/07/24 05:51:06;;;;;;;13.05;8.95;;;;;;;;;;6247498;22;20023;-66
2023/07/24 05:53:32;;;;;;;14.63;9.40;;;;;;;;;;6274791;22;20023;-66
2023/07/24 05:55:59;;;;;;;16.77;8.60;;;;;;;;;;6274460;22;20102;-66
2023/07/24 05:58:26;;;;;;;12.60;8.55;;;;;;;;;;6247813;22;20011;-66
2023/07/24 06:00:52;;;;;;;16.08;8.80;;;;;;;;;;6274272;22;20463;-65
2023/07/24 06:03:18;;;;;;;14.07;8.50;;;;;;;;;;6274680;22;20180;-66
2023/07/24 06:05:44;;;;;;;11.60;8.18;;;;;;;;;;6275334;22;20016;-66
2023/07/24 06:08:10;;;;;;;11.80;8.20;;;;;;;;;;6274423;22;20142;-66
2023/07/24 06:10:37;;;;;;;12.95;7.82;;;;;;;;;;6222567;22;20531;-66
2023/07/24 06:13:03;;;;;;;13.40;8.32;;;;;;;;;;6274598;22;20440;-66
2023/07/24 06:15:29;;;;;;;12.88;7.97;;;;;;;;;;6274893;22;20384;-66
2023/07/24 06:17:55;;;;;;;12.32;8.32;;;;;;;;;;6247879;22;20020;-66
2023/07/24 06:20:21;;;;;;;14.63;8.55;;;;;;;;;;6222839;22;20020;-66
2023/07/24 06:22:47;;;;;;;12.52;8.27;;;;;;;;;;6276322;22;20042;-66
2023/07/24 06:25:13;;;;;;;14.05;7.25;;;;;;;;;;6276697;22;20023;-66
2023/07/24 06:27:39;;;;;;;10.82;7.68;;;;;;;;;;6277097;22;20078;-66
2023/07/24 06:30:05;;;;;;;13.10;8.98;;;;;;;;;;6276892;22;20022;-66
2023/07/24 06:32:34;;;;;;;13.93;8.13;;;;;;;;;;6277219;22;20016;-66
2023/07/24 06:35:00;;;;;;;13.75;7.78;;;;;;;;;;6249484;22;20015;-66
2023/07/24 06:37:26;;;;;;;12.48;7.85;;;;;;;;;;6275799;22;20117;-65
2023/07/24 06:39:55;;;;;;;12.75;7.90;;;;;;;;;;6248839;22;20023;-66
2023/07/24 06:42:21;;;;;;;15.48;7.32;;;;;;;;;;6275967;22;20054;-61
2023/07/24 06:44:47;;;;;;;15.23;7.93;;;;;;;;;;6223783;22;20024;-62
2023/07/24 06:47:13;;;;;;;11.15;7.80;;;;;;;;;;6249255;22;20440;-62
2023/07/24 06:49:39;;;;;;;17.83;8.57;;;;;;;;;;6275614;22;20020;-62
2023/07/24 06:52:06;;;;;;;18.08;8.20;;;;;;;;;;6275574;22;20071;-62
2023/07/24 06:54:32;;;;;;;13.95;7.10;;;;;;;;;;6224766;22;20012;-62
2023/07/24 06:56:58;;;;;;;16.05;7.20;;;;;;;;;;6276784;22;20031;-63
2023/07/24 06:59:24;;;;;;;15.05;7.10;;;;;;;;;;6249564;22;20336;-62
2023/07/24 07:01:50;;;;;;;12.57;6.97;;;;;;;;;;6276792;22;20016;-62
2023/07/24 07:04:17;;;;;;;14.20;7.47;;;;;;;;;;6275227;22;20447;-62
2023/07/24 07:06:43;;;;;;;12.25;6.30;;;;;;;;;;6248952;22;20023;-62
2023/07/24 07:09:09;;;;;;;13.70;6.57;;;;;;;;;;6249312;22;20085;-62
2023/07/24 07:11:36;;;;;;;12.00;7.60;;;;;;;;;;6276623;22;20062;-62
2023/07/24 07:14:02;;;;;;;13.32;6.80;;;;;;;;;;6249560;22;20023;-63
2023/07/24 07:16:28;;;;;;;12.20;6.65;;;;;;;;;;6247752;22;20023;-63
2023/07/24 07:18:54;;;;;;;14.23;6.57;;;;;;;;;;6222121;22;20028;-63
2023/07/24 07:21:20;;;;;;;15.63;5.78;;;;;;;;;;6248030;22;20020;-63
2023/07/24 07:23:46;;;;;;;15.00;6.28;;;;;;;;;;6275860;22;20099;-62
2023/07/24 07:26:12;;;;;;;14.88;5.93;;;;;;;;;;6248824;22;20020;-62
2023/07/24 07:28:38;;;;;;;15.55;6.20;;;;;;;;;;6275770;22;20027;-63
2023/07/24 07:31:04;;;;;;;18.85;6.55;;;;;;;;;;6223299;22;20016;-63
2023/07/24 07:33:30;;;;;;;15.15;6.57;;;;;;;;;;6276178;22;20341;-62
2023/07/24 07:35:56;;;;;;;12.15;6.07;;;;;;;;;;6275650;22;20015;-63
2023/07/24 07:38:23;;;;;;;13.02;7.53;;;;;;;;;;6275912;22;20150;-62
2023/07/24 07:40:49;;;;;;;13.85;6.38;;;;;;;;;;6248054;22;20026;-62
2023/07/24 07:43:15;;;;;;;11.60;6.80;;;;;;;;;;6247563;22;20015;-62
2023/07/24 07:45:41;;;;;;;16.00;6.45;;;;;;;;;;6276507;22;20058;-62
2023/07/24 07:48:07;;;;;;;12.65;5.90;;;;;;;;;;6249035;22;20015;-62
2023/07/24 07:50:33;;;;;;;18.10;7.85;;;;;;;;;;6275255;22;20090;-63
2023/07/24 07:52:59;;;;;;;13.80;7.05;;;;;;;;;;6274261;22;20444;-63
2023/07/24 07:55:25;;;;;;;19.08;7.95;;;;;;;;;;6249142;22;20356;-62
2023/07/24 07:57:51;;;;;;;13.73;6.22;;;;;;;;;;6275860;22;20463;-62
2023/07/24 08:00:18;;;;;;;13.05;6.30;;;;;;;;;;6221874;22;20024;-62
2023/07/24 08:02:44;;;;;;;17.50;7.95;;;;;;;;;;6248368;22;20042;-63
2023/07/24 08:05:11;;;;;;;16.20;6.10;;;;;;;;;;6247290;22;20341;-62
2023/07/24 08:07:37;;;;;;;12.23;6.28;;;;;;;;;;6223485;22;20019;-62
2023/07/24 08:10:03;;;;;;;22.10;8.45;;;;;;;;;;6248337;22;20062;-63
2023/07/24 08:12:29;;;;;;;13.68;6.55;;;;;;;;;;6248054;22;20388;-62
2023/07/24 08:14:59;;;;;;;16.77;6.55;;;;;;;;;;6275825;22;20016;-63
2023/07/24 08:17:25;;;;;;;22.13;7.75;;;;;;;;;;6276275;22;20340;-63
2023/07/24 08:19:51;;;;;;;12.63;5.70;;;;;;;;;;6275533;22;20023;-62
2023/07/24 08:22:19;;;;;;;17.92;6.82;;;;;;;;;;6222498;22;20019;-63
2023/07/24 08:24:46;;;;;;;19.55;8.68;;;;;;;;;;6223008;22;20058;-63
2023/07/24 08:27:12;;;;;;;11.07;6.32;;;19.80;99.90;;;;;;6221507;22;20023;-62
2023/07/24 08:29:38;;;;;;;15.07;7.38;;;;;;;;;;6275257;22;20085;-63
2023/07/24 08:32:05;;;;;;;16.40;6.10;;;;;;;;;;6274445;22;20445;-63
2023/07/24 08:34:31;;;;;;;10.98;5.50;;;;;;;;;;6247640;22;20091;-63
2023/07/24 08:36:59;;;;;;;17.38;6.60;;;;;;;;;;6275480;22;20098;-63
2023/07/24 08:39:25;;;;;;;14.15;5.70;;;;;;;;;;6248131;22;20101;-63
2023/07/24 08:41:51;;;;;;;15.35;6.18;;;;;;;;;;6275183;22;20020;-63
2023/07/24 08:44:18;;;;;;;11.85;5.22;;;;;;;;;;6274599;22;20024;-62
2023/07/24 08:46:45;;;;;;;14.93;6.53;;;20.90;99.90;;;;;;6248042;22;20015;-62
2023/07/24 08:49:16;;;;;;;12.93;5.22;;;21.10;99.90;;;;;;6246812;22;20047;-62
2023/07/24 08:51:43;;;;;;;14.13;6.03;;;20.90;99.90;;;;;;6222269;22;20020;-63
2023/07/24 08:54:11;;;;;;;9.63;5.20;;;21.20;99.90;;;;;;6273263;22;20145;-66
2023/07/24 08:56:40;;;;;;;16.40;5.60;;;21.10;99.90;;;;;;6247842;22;20044;-62
2023/07/24 08:59:06;;;;;;;11.18;6.10;;;;;;;;;;6275153;22;20019;-61
2023/07/24 09:01:32;;;;;;;9.75;4.93;;;;;;;;;;6248661;22;20030;-62
2023/07/24 09:03:58;;;;;;;14.82;6.70;;;;;;;;;;6274922;22;20016;-62
2023/07/24 09:06:26;;;;;;;14.20;5.32;;;21.20;99.90;;;;;;6274541;22;20023;-61
2023/07/24 09:08:54;;;;;;;14.00;6.53;;;21.50;99.90;;;;;;6223301;22;20065;-62
2023/07/24 09:11:20;;;;;;;12.65;6.35;;;;;;;;;;6248370;22;20050;-62
2023/07/24 09:13:46;;;;;;;10.15;5.93;;;;;;;;;;6248775;22;20020;-62
2023/07/24 09:16:23;;;;;;;13.38;5.68;;;21.50;99.90;;;;;;6248414;22;20016;-62
2023/07/24 09:18:51;;;;;;;12.35;5.78;;;21.40;99.90;;;;;;6248264;22;20090;-62
2023/07/24 09:21:27;;;;;;;14.27;5.35;;;21.40;99.90;;;;;;6247811;22;20016;-62
2023/07/24 09:23:53;;;;;;;13.25;5.75;;;21.30;99.90;;;;;;6247620;22;20011;-64
2023/07/24 09:26:19;;;;;;;11.05;5.03;;;;;;;;;;6273038;22;20019;-63
2023/07/24 09:28:53;;;;;;;9.57;5.43;;;21.30;99.90;;;;;;6275094;22;20020;-64
2023/07/24 09:31:19;;;;;;;10.38;5.70;;;21.40;99.90;;;;;;6274339;22;20020;-64
2023/07/24 09:33:45;;;;;;;11.27;5.10;;;;;;;;;;6247232;22;20015;-64
2023/07/24 09:36:11;;;;;;;13.63;5.80;;;22.10;99.90;;;;;;6247022;22;20024;-65
2023/07/24 09:38:40;;;;;;;13.02;5.25;;;22.60;99.90;;;;;;6247229;22;20168;-64
2023/07/24 09:41:06;;;;;;;10.73;5.75;;;23.10;99.90;;;;;;6274978;22;20024;-64
2023/07/24 09:43:35;;;;;;;12.63;5.00;;;23.20;99.90;;;;;;6222350;22;20440;-56
2023/07/24 09:46:03;;;;;;;9.70;5.10;;;23.30;99.90;;;;;;6246977;22;20051;-56
2023/07/24 09:48:30;;;;;;;13.43;4.82;;;;;;;;;;6248169;22;20023;-56
2023/07/24 09:50:57;;;;;;;13.15;4.82;;;23.00;99.90;;;;;;6275031;22;20019;-53
2023/07/24 09:53:32;;;;;;;11.07;4.32;;;23.10;99.90;;;;;;6274236;22;20058;-57
2023/07/24 09:56:04;;;;;;;11.57;4.97;;;23.40;99.90;;;;;;6275174;22;20030;-58
2023/07/24 09:58:29;;;;;;;9.93;4.95;;;23.60;99.90;;;;;;6250394;22;20020;-54
2023/07/24 10:00:56;;;;;;;9.68;4.90;;;23.60;99.90;;;;;;6249506;22;20105;-56
2023/07/24 10:03:26;;;;;;;8.43;5.05;;;23.50;99.90;;;;;;6199161;22;20018;-56
2023/07/24 10:05:52;;;;;;;;;;;23.50;99.90;;;;;;6224680;22;20020;-55
2023/07/24 10:08:19;;;;;;;10.57;5.18;;;23.60;99.90;;;;;;6275001;22;19934;-56
2023/07/24 10:10:45;;;;;;;13.48;5.28;;;23.30;99.90;;;;;;6250017;22;20089;-53
2023/07/24 10:13:14;;;;;;;10.52;4.88;;;23.40;99.90;;;;;;6276298;22;20016;-54
2023/07/24 10:15:45;;;;;;;9.07;3.22;;;23.40;99.90;;;;;;6224335;22;20020;-51
2023/07/24 10:18:11;;;;;;;8.38;4.25;;;23.80;99.90;;;;;;6275941;22;20020;-55
2023/07/24 10:20:40;;;;;;;6.82;4.00;;;23.70;99.90;;;;;;6224012;22;20054;-57
2023/07/24 10:23:08;;;;;;;9.70;4.72;;;23.80;99.90;;;;;;6224486;22;20020;-56
2023/07/24 10:25:35;;;;;;;9.80;4.80;;;24.10;99.90;;;;;;6275985;22;20318;-56
2023/07/24 10:28:11;;;;;;;11.20;4.30;;;24.10;99.90;;;;;;6223042;22;20027;-60
2023/07/24 10:30:38;;;;;;;9.85;4.15;;;;;;;;;;6249203;22;20322;-57
2023/07/24 10:33:11;;;;;;;11.10;3.38;;;23.40;99.90;;;;;;6275652;22;20025;-57
2023/07/24 10:35:41;;;;;;;12.93;4.55;;;23.20;99.90;;;;;;6276602;22;20022;-60
2023/07/24 10:38:08;;;;;;;10.68;4.40;;;;;;;;;;6276250;22;20065;-60
2023/07/24 10:40:34;;;;;;;11.52;4.90;;;23.20;99.90;;;;;;6248577;22;20026;-58
2023/07/24 10:43:11;;;;;;;7.75;3.50;;;23.50;99.90;;;;;;6223622;22;20095;-58
2023/07/24 10:45:53;;;;;;;13.00;4.53;;;23.40;99.90;;;;;;6276343;22;20019;-57
2023/07/24 10:48:25;;;;;;;11.50;4.80;;;23.40;99.90;;;;;;6248752;22;20441;-59
2023/07/24 10:50:52;;;;;;;10.27;4.78;;;23.50;99.90;;;;;;6224028;22;20450;-58
2023/07/24 10:53:20;;;;;;;7.57;4.05;;;23.50;99.90;;;;;;6223809;22;20157;-60
2023/07/24 10:55:50;;;;;;;8.13;4.75;;;;;;;;;;6249505;22;20031;-61
2023/07/24 10:58:16;;;;;;;7.40;4.10;;;;;;;;;;6273860;22;20081;-59
2023/07/24 11:00:44;;;;;;;8.68;4.32;;;23.50;99.90;;;;;;6275441;22;20756;-57
2023/07/24 11:03:11;;;;;;;13.48;4.85;;;23.40;99.90;;;;;;6276095;22;20059;-57
2023/07/24 11:05:46;;;;;;;8.88;4.45;;;23.50;99.90;;;;;;6275871;22;20103;-57
2023/07/24 11:08:18;;;;;;;7.68;3.95;;;23.50;99.90;;;;;;6248677;22;20034;-58
2023/07/24 11:10:47;;;;;;;13.40;3.80;;;23.50;99.90;;;;;;6249197;22;20015;-58
2023/07/24 11:13:14;;;;;;;7.75;4.25;;;23.50;99.90;;;;;;6223605;22;20479;-58
2023/07/24 11:15:40;;;;;;;7.85;4.63;;;23.40;99.90;;;;;;6223827;22;20020;-58
2023/07/24 11:18:10;;;;;;;9.00;4.38;;;;;;;;;;6274993;22;20097;-57
2023/07/24 11:20:47;;;;;;;10.02;4.28;;;23.60;99.90;;;;;;6223993;22;20023;-56
2023/07/24 11:23:13;;;;;;;14.25;4.22;;;;;;;;;;6275595;22;20020;-59
2023/07/24 11:25:40;;;;;;;6.75;4.03;;;;;;;;;;6275928;22;20047;-61
2023/07/24 11:28:07;;;;;;;8.25;4.80;;;23.30;99.90;;;;;;6248277;22;20078;-61
2023/07/24 11:30:33;;;;;;;10.63;4.25;;;;;;;;;;6247145;22;20015;-60
2023/07/24 11:33:01;;;;;;;7.18;3.95;;;23.20;99.90;;;;;;6223367;22;20471;-63
2023/07/24 11:35:27;;;;;;;7.93;4.07;;;;;;;;;;6224184;22;20121;-61
2023/07/24 11:37:53;;;;;;;6.20;3.70;;;;;;;;;;6223575;22;20031;-62
2023/07/24 11:40:20;;;;;;;10.90;4.03;;;;;;;;;;6275446;22;20106;-59
2023/07/24 11:42:48;;;;;;;9.70;5.65;;;22.30;99.90;;;;;;6274959;22;20050;-66
2023/07/24 11:45:14;;;;;;;8.13;4.63;;;;;;;;;;6248720;22;20027;-66
2023/07/24 11:47:50;;;;;;;11.07;6.25;;;;;;;;;;6249315;22;20058;-67
2023/07/24 11:50:17;;;;;;;10.80;5.50;;;;;;;;;;6275078;22;20012;-71
2023/07/24 11:52:45;;;;;;;10.30;6.47;;;;;;;;;;6276066;22;20092;-68
2023/07/24 11:55:14;;;;;;;10.05;5.78;;;;;;;;;;6276074;22;20012;-67
2023/07/24 11:57:40;;;;;;;9.23;4.55;;;;;;;;;;6275831;22;20023;-63
2023/07/24 12:00:18;;;;;;;14.13;5.55;;;;;;;;;;6275417;22;20039;-66
2023/07/24 12:02:49;;;;;;;;;;;19.00;99.90;;;;;;6249870;22;20459;-65
2023/07/24 12:05:15;;;;;;;9.05;5.10;;;;;;;;;;6275350;22;19961;-67
2023/07/24 12:07:43;;;;;;;13.43;7.30;;;;;;;;;;6223509;22;20016;-66
2023/07/24 12:10:09;;;;;;;15.13;8.85;;;;;;;;;;6222069;22;20034;-61
2023/07/24 12:12:46;;;;;;;15.48;8.88;;;;;;;;;;6274857;22;20021;-66
2023/07/24 12:15:12;;;;;;;14.55;9.70;;;;;;;;;;6248358;22;20011;-66
2023/07/24 12:17:38;;;;;;;12.82;9.73;;;;;;;;;;6275534;22;20150;-65
2023/07/24 12:20:09;;;;;;;13.43;9.73;;;;;;;;;;6275462;22;20023;-65
2023/07/24 12:22:39;;;;;;;14.07;9.95;;;;;;;;;;6247299;22;20486;-65
2023/07/24 12:25:05;;;;;;;15.23;9.68;;;;;;;;;;6247835;22;20107;-65
2023/07/24 12:27:31;;;;;;;10.98;8.98;;;;;;;;;;6247787;22;20448;-65
2023/07/24 12:29:58;;;;;;;13.57;9.27;;;;;;;;;;6274993;22;20456;-65
2023/07/24 12:32:24;;;;;;;14.43;9.85;;;;;;;;;;6248144;22;20030;-65
2023/07/24 12:34:51;;;;;;;14.75;9.63;;;;;;;;;;6222332;22;20019;-65
2023/07/24 12:37:20;;;;;;;15.98;10.70;;;;;;;;;;6222803;22;20019;-65
2023/07/24 12:39:47;;;;;;;12.70;9.93;;;18.90;99.90;;;;;;6248479;22;20016;-65
2023/07/24 12:42:13;;;;;;;15.95;9.93;;;;;;;;;;6248089;22;20020;-65
2023/07/24 12:44:39;;;;;;;11.80;9.75;;;;;;;;;;6273856;22;20019;-65
2023/07/24 12:47:06;;;;;;;12.20;10.10;;;;;;;;;;6248025;22;20022;-65
2023/07/24 12:49:32;;;;;;;15.77;10.45;;;;;;;;;;6275179;22;20019;-65
2023/07/24 12:51:58;;;;;;;15.75;10.05;;;;;;;;;;6275372;22;20019;-65
2023/07/24 12:54:24;;;;;;;14.23;10.05;;;;;;;;;;6247209;22;20055;-65
2023/07/24 12:56:50;;;;;;;12.18;9.07;;;;;;;;;;6222746;22;20026;-65
2023/07/24 12:59:17;;;;;;;12.18;8.32;;;;;;;;;;6222657;22;20019;-66
2023/07/24 13:01:43;;;;;;;8.07;6.25;;;;;;;;;;6246627;22;20020;-65
2023/07/24 13:04:10;;;;;;;9.35;5.10;;;;;;;;;;6247384;22;20023;-65
2023/07/24 13:06:36;;;;;;;4.78;3.60;;;;;;;;;;6247969;22;20309;-65
2023/07/24 13:09:02;;;;;;;4.97;3.83;;;;;;;;;;6272820;22;20022;-63
2023/07/24 13:11:29;;;;;;;5.13;4.18;;;;;;;;;;6247984;22;20448;-63
2023/07/24 13:13:55;;;;;;;4.50;2.42;;;;;;;;;;6273215;22;20016;-64
2023/07/24 13:16:21;;;;;;;3.25;2.00;;;;;;;;;;6220389;22;20062;-63
2023/07/24 13:18:49;;;;;;;4.35;1.90;;;;;;;;;;6273621;22;20138;-64
2023/07/24 13:21:17;;;;;;;4.55;1.70;;;;;;;;;;6247021;22;20093;-63
2023/07/24 13:23:43;;;;;;;3.58;2.08;;;;;;;;;;6274532;22;20019;-63
2023/07/24 13:26:10;;;;;;;3.38;1.77;;;;;;;;;;6274580;22;20024;-63
2023/07/24 13:28:40;;;;;;;4.30;1.90;;;;;;;;;;6247916;22;20429;-64
2023/07/24 13:31:17;;;;;;;4.75;2.15;;;;;;;;;;6222741;22;20031;-64
2023/07/24 13:33:42;;;;;;;6.75;1.90;;;20.60;99.90;;;;;;6247784;22;20471;-64
2023/07/24 13:36:09;;;;;;;5.88;2.05;;;;;;;;;;6222234;22;20023;-64
2023/07/24 13:38:35;;;;;;;4.50;1.88;;;;;;;;;;6247678;22;20479;-64
2023/07/24 13:41:01;;;;;;;4.22;1.70;;;;;;;;;;6274513;22;20023;-63
2023/07/24 13:43:28;;;;;;;2.30;1.27;;;;;;;;;;6248133;22;20020;-64
2023/07/24 13:45:54;;;;;;;5.78;1.80;;;;;;;;;;6222415;22;20099;-64
2023/07/24 13:48:20;;;;;;;3.22;1.40;;;;;;;;;;6273996;22;20022;-66
2023/07/24 13:50:47;;;;;;;3.70;1.58;;;;;;;;;;6274887;22;20019;-65
2023/07/24 13:53:13;;;;;;;6.05;2.03;;;;;;;;;;6273592;22;20510;-65
2023/07/24 13:55:39;;;;;;;6.15;2.78;;;;;;;;;;6274319;22;20026;-64
2023/07/24 13:58:05;;;;;;;5.53;2.55;;;;;;;;;;6247191;22;20142;-64
2023/07/24 14:00:31;;;;;;;4.38;1.70;;;;;;;;;;6275345;22;20074;-65
2023/07/24 14:03:00;;;;;;;5.78;1.85;;;;;;;;;;6275035;22;20027;-64
2023/07/24 14:05:26;;;;;;;5.68;1.50;;;;;;;;;;6222155;22;20091;-63
2023/07/24 14:07:52;;;;;;;6.25;2.25;;;;;;;;;;6247022;22;20027;-64
2023/07/24 14:10:18;;;;;;;4.50;2.47;;;;;;;;;;6247669;22;20028;-64